sensor_id;sensor_type;location;lat;lon;timestamp;pressure;altitude;pressure_sealevel;temperature;humidity
47154;BME280;32907;41.412;2.164;2023-06-01T00:01:15;100335.25;;;24.47;49.17
47154;BME280;32907;41.412;2.164;2023-06-01T00:03:46;100244.75;;;23.83;48.81
47154;BME280;32907;41.412;2.164;2023-06-01T00:06:15;100282.06;;;24.13;48.58
47154;BME280;32907;41.412;2.164;2023-06-01T00:09:09;100252.78;;;23.96;48.30
47154;BME280;32907;41.412;2.164;2023-06-01T00:11:38;100453.97;;;25.20;48.50
47154;BME280;32907;41.412;2.164;2023-06-01T00:14:06;100214.47;;;23.53;48.21
47154;BME280;32907;41.412;2.164;2023-06-01T00:16:38;100224.47;;;23.66;47.69
47154;BME280;32907;41.412;2.164;2023-06-01T00:22:38;100320.75;;;24.12;47.41
47154;BME280;32907;41.412;2.164;2023-06-01T00:25:09;100258.09;;;23.58;47.52
47154;BME280;32907;41.412;2.164;2023-06-01T00:27:41;100310.16;;;23.84;47.01
47154;BME280;32907;41.412;2.164;2023-06-01T00:30:10;100299.00;;;23.89;46.91
47154;BME280;32907;41.412;2.164;2023-06-01T00:32:38;100242.31;;;23.47;47.24
47154;BME280;32907;41.412;2.164;2023-06-01T00:35:10;100265.34;;;23.54;47.26
47154;BME280;32907;41.412;2.164;2023-06-01T00:41:43;100414.09;;;24.50;48.02
47154;BME280;32907;41.412;2.164;2023-06-01T00:44:13;100503.41;;;25.03;48.09
47154;BME280;32907;41.412;2.164;2023-06-01T00:46:42;100236.34;;;23.44;48.45
47154;BME280;32907;41.412;2.164;2023-06-01T00:49:10;100212.84;;;23.35;48.66
47154;BME280;32907;41.412;2.164;2023-06-01T00:51:43;100344.59;;;24.20;48.79
47154;BME280;32907;41.412;2.164;2023-06-01T00:54:18;100319.97;;;24.03;49.17
47154;BME280;32907;41.412;2.164;2023-06-01T00:56:51;100235.22;;;23.54;49.33
47154;BME280;32907;41.412;2.164;2023-06-01T00:59:20;100403.28;;;24.45;49.23
47154;BME280;32907;41.412;2.164;2023-06-01T01:01:49;100366.84;;;24.44;49.59
47154;BME280;32907;41.412;2.164;2023-06-01T01:04:20;100311.09;;;24.06;49.50
47154;BME280;32907;41.412;2.164;2023-06-01T01:09:47;100225.72;;;23.34;49.42
47154;BME280;32907;41.412;2.164;2023-06-01T01:13:22;100226.53;;;23.43;49.30
47154;BME280;32907;41.412;2.164;2023-06-01T01:15:58;100456.75;;;24.94;49.06
47154;BME280;32907;41.412;2.164;2023-06-01T01:21:29;100241.03;;;23.44;49.62
47154;BME280;32907;41.412;2.164;2023-06-01T01:27:39;100214.47;;;23.27;49.46
47154;BME280;32907;41.412;2.164;2023-06-01T01:30:13;100325.78;;;23.84;49.79
47154;BME280;32907;41.412;2.164;2023-06-01T01:32:48;100451.78;;;24.88;49.74
47154;BME280;32907;41.412;2.164;2023-06-01T01:35:20;100443.88;;;24.77;49.75
47154;BME280;32907;41.412;2.164;2023-06-01T01:37:57;100251.00;;;23.40;49.99
47154;BME280;32907;41.412;2.164;2023-06-01T01:40:26;100240.38;;;23.47;49.85
47154;BME280;32907;41.412;2.164;2023-06-01T01:42:57;100267.41;;;23.57;50.30
47154;BME280;32907;41.412;2.164;2023-06-01T01:45:30;100242.78;;;23.31;49.97
47154;BME280;32907;41.412;2.164;2023-06-01T01:48:11;100467.44;;;24.87;50.04
47154;BME280;32907;41.412;2.164;2023-06-01T01:50:52;100265.81;;;23.56;49.92
47154;BME280;32907;41.412;2.164;2023-06-01T01:53:23;100223.28;;;23.33;50.34
47154;BME280;32907;41.412;2.164;2023-06-01T01:55:58;100217.69;;;23.29;49.74
47154;BME280;32907;41.412;2.164;2023-06-01T01:58:31;100368.44;;;24.28;49.60
47154;BME280;32907;41.412;2.164;2023-06-01T02:01:04;100376.34;;;24.29;49.91
47154;BME280;32907;41.412;2.164;2023-06-01T02:03:36;100462.59;;;24.84;50.25
47154;BME280;32907;41.412;2.164;2023-06-01T02:06:05;100202.03;;;23.12;49.92
47154;BME280;32907;41.412;2.164;2023-06-01T02:08:37;100273.91;;;23.61;50.04
47154;BME280;32907;41.412;2.164;2023-06-01T02:11:16;100267.41;;;23.57;50.14
47154;BME280;32907;41.412;2.164;2023-06-01T02:13:44;100305.00;;;23.91;50.18
47154;BME280;32907;41.412;2.164;2023-06-01T02:16:13;100204.47;;;23.14;50.17
47154;BME280;32907;41.412;2.164;2023-06-01T02:18:44;100221.69;;;23.23;50.16
47154;BME280;32907;41.412;2.164;2023-06-01T02:21:43;100440.03;;;24.78;50.31
47154;BME280;32907;41.412;2.164;2023-06-01T02:24:16;100301.94;;;23.84;50.53
47154;BME280;32907;41.412;2.164;2023-06-01T02:26:46;100210.09;;;23.17;50.77
47154;BME280;32907;41.412;2.164;2023-06-01T02:29:16;100306.59;;;23.84;50.42
47154;BME280;32907;41.412;2.164;2023-06-01T02:31:49;100210.13;;;23.35;50.66
47154;BME280;32907;41.412;2.164;2023-06-01T02:34:21;100298.88;;;23.86;50.97
47154;BME280;32907;41.412;2.164;2023-06-01T02:36:50;100226.84;;;23.42;51.33
47154;BME280;32907;41.412;2.164;2023-06-01T02:39:24;100175.50;;;23.13;51.29
47154;BME280;32907;41.412;2.164;2023-06-01T02:41:53;100197.25;;;23.27;50.93
47154;BME280;32907;41.412;2.164;2023-06-01T02:44:48;100415.03;;;24.71;51.41
47154;BME280;32907;41.412;2.164;2023-06-01T02:47:20;100267.63;;;23.78;51.03
47154;BME280;32907;41.412;2.164;2023-06-01T02:49:49;100283.56;;;23.67;51.20
47154;BME280;32907;41.412;2.164;2023-06-01T02:52:20;100275.69;;;23.75;50.77
47154;BME280;32907;41.412;2.164;2023-06-01T02:54:49;100288.88;;;23.90;51.20
47154;BME280;32907;41.412;2.164;2023-06-01T02:57:44;100139.94;;;22.87;51.00
47154;BME280;32907;41.412;2.164;2023-06-01T03:00:16;100251.66;;;23.54;51.56
47154;BME280;32907;41.412;2.164;2023-06-01T03:02:48;100245.53;;;23.57;51.08
47154;BME280;32907;41.412;2.164;2023-06-01T03:05:17;100166.81;;;23.11;51.03
47154;BME280;32907;41.412;2.164;2023-06-01T03:07:52;100150.69;;;23.01;50.88
47154;BME280;32907;41.412;2.164;2023-06-01T03:10:25;100400.69;;;24.66;51.42
47154;BME280;32907;41.412;2.164;2023-06-01T03:13:13;100241.84;;;23.62;51.76
47154;BME280;32907;41.412;2.164;2023-06-01T03:15:45;100394.41;;;24.65;51.40
47154;BME280;32907;41.412;2.164;2023-06-01T03:18:14;100232.50;;;23.54;51.52
47154;BME280;32907;41.412;2.164;2023-06-01T03:20:51;100304.19;;;23.99;51.72
47154;BME280;32907;41.412;2.164;2023-06-01T03:23:21;100237.81;;;23.59;51.99
47154;BME280;32907;41.412;2.164;2023-06-01T03:25:52;100316.09;;;24.12;51.87
47154;BME280;32907;41.412;2.164;2023-06-01T03:28:23;100129.31;;;22.94;51.75
47154;BME280;32907;41.412;2.164;2023-06-01T03:30:52;100252.16;;;23.65;51.71
47154;BME280;32907;41.412;2.164;2023-06-01T03:33:28;100336.06;;;24.13;51.97
47154;BME280;32907;41.412;2.164;2023-06-01T03:35:57;100382.63;;;24.65;52.00
47154;BME280;32907;41.412;2.164;2023-06-01T03:38:28;100119.66;;;22.97;52.08
47154;BME280;32907;41.412;2.164;2023-06-01T03:40:56;100173.09;;;23.11;52.08
47154;BME280;32907;41.412;2.164;2023-06-01T03:43:27;100161.66;;;23.09;52.05
47154;BME280;32907;41.412;2.164;2023-06-01T03:45:56;100305.63;;;24.14;52.14
47154;BME280;32907;41.412;2.164;2023-06-01T03:48:25;100147.69;;;23.11;52.14
47154;BME280;32907;41.412;2.164;2023-06-01T03:50:54;100180.03;;;23.35;51.99
47154;BME280;32907;41.412;2.164;2023-06-01T03:53:23;100300.94;;;24.06;52.45
47154;BME280;32907;41.412;2.164;2023-06-01T03:55:55;100364.28;;;24.39;52.16
47154;BME280;32907;41.412;2.164;2023-06-01T03:58:53;100174.38;;;23.23;52.13
47154;BME280;32907;41.412;2.164;2023-06-01T04:01:22;100393.72;;;24.68;52.11
47154;BME280;32907;41.412;2.164;2023-06-01T04:03:53;100170.03;;;23.22;51.92
47154;BME280;32907;41.412;2.164;2023-06-01T04:06:22;100212.38;;;23.50;52.02
47154;BME280;32907;41.412;2.164;2023-06-01T04:08:54;100349.59;;;24.44;52.56
47154;BME280;32907;41.412;2.164;2023-06-01T04:11:32;100234.78;;;23.61;52.67
47154;BME280;32907;41.412;2.164;2023-06-01T04:14:02;100142.22;;;23.11;52.27
47154;BME280;32907;41.412;2.164;2023-06-01T04:16:34;100180.31;;;23.25;52.35
47154;BME280;32907;41.412;2.164;2023-06-01T04:19:03;100197.53;;;23.34;52.44
47154;BME280;32907;41.412;2.164;2023-06-01T04:21:35;100164.56;;;23.13;52.24
47154;BME280;32907;41.412;2.164;2023-06-01T04:24:05;100394.53;;;24.69;52.43
47154;BME280;32907;41.412;2.164;2023-06-01T04:26:41;100398.88;;;24.70;52.10
47154;BME280;32907;41.412;2.164;2023-06-01T04:29:32;100400.03;;;24.69;52.54
47154;BME280;32907;41.412;2.164;2023-06-01T04:32:01;100403.91;;;24.68;52.77
47154;BME280;32907;41.412;2.164;2023-06-01T04:34:34;100315.59;;;24.19;52.27
47154;BME280;32907;41.412;2.164;2023-06-01T04:37:05;100249.13;;;23.75;52.58
47154;BME280;32907;41.412;2.164;2023-06-01T04:39:34;100400.03;;;24.69;52.51
47154;BME280;32907;41.412;2.164;2023-06-01T04:42:07;100240.56;;;23.68;52.48
47154;BME280;32907;41.412;2.164;2023-06-01T04:46:01;100389.56;;;24.71;52.41
47154;BME280;32907;41.412;2.164;2023-06-01T04:48:34;100392.28;;;24.62;52.17
47154;BME280;32907;41.412;2.164;2023-06-01T04:51:05;100153.94;;;23.20;52.34
47154;BME280;32907;41.412;2.164;2023-06-01T04:53:33;100159.72;;;23.10;52.29
47154;BME280;32907;41.412;2.164;2023-06-01T04:56:02;100290.16;;;23.92;52.39
47154;BME280;32907;41.412;2.164;2023-06-01T04:58:30;100193.19;;;23.15;52.54
47154;BME280;32907;41.412;2.164;2023-06-01T05:01:01;100323.97;;;24.14;52.64
47154;BME280;32907;41.412;2.164;2023-06-01T05:03:31;100278.91;;;23.77;52.33
47154;BME280;32907;41.412;2.164;2023-06-01T05:06:00;100206.06;;;23.32;52.45
47154;BME280;32907;41.412;2.164;2023-06-01T05:08:29;100176.31;;;23.13;52.35
47154;BME280;32907;41.412;2.164;2023-06-01T05:10:59;100215.59;;;23.35;52.41
47154;BME280;32907;41.412;2.164;2023-06-01T05:13:33;100434.22;;;24.71;52.33
47154;BME280;32907;41.412;2.164;2023-06-01T05:16:03;100213.81;;;23.39;52.59
47154;BME280;32907;41.412;2.164;2023-06-01T05:18:32;100323.97;;;24.14;52.56
47154;BME280;32907;41.412;2.164;2023-06-01T05:21:04;100307.88;;;23.95;52.57
47154;BME280;32907;41.412;2.164;2023-06-01T05:23:32;100346.84;;;24.26;52.47
47154;BME280;32907;41.412;2.164;2023-06-01T05:26:01;100185.47;;;23.17;52.71
47154;BME280;32907;41.412;2.164;2023-06-01T05:28:40;100421.94;;;24.69;52.73
47154;BME280;32907;41.412;2.164;2023-06-01T05:31:13;100293.22;;;23.73;52.51
47154;BME280;32907;41.412;2.164;2023-06-01T05:33:48;100300.78;;;23.94;52.21
47154;BME280;32907;41.412;2.164;2023-06-01T05:36:19;100196.25;;;23.23;52.50
47154;BME280;32907;41.412;2.164;2023-06-01T05:39:16;100268.41;;;23.53;52.30
47154;BME280;32907;41.412;2.164;2023-06-01T05:41:55;100448.56;;;24.68;52.25
47154;BME280;32907;41.412;2.164;2023-06-01T05:44:26;100276.94;;;23.51;52.54
47154;BME280;32907;41.412;2.164;2023-06-01T05:46:58;100178.38;;;22.99;52.12
47154;BME280;32907;41.412;2.164;2023-06-01T05:49:26;100436.16;;;24.71;52.16
47154;BME280;32907;41.412;2.164;2023-06-01T05:51:59;100212.84;;;23.26;51.97
47154;BME280;32907;41.412;2.164;2023-06-01T05:54:30;100463.59;;;24.71;52.00
47154;BME280;32907;41.412;2.164;2023-06-01T05:56:58;100183.03;;;22.99;52.09
47154;BME280;32907;41.412;2.164;2023-06-01T05:59:36;100444.22;;;24.67;52.25
47154;BME280;32907;41.412;2.164;2023-06-01T06:02:05;100355.72;;;23.97;52.20
47154;BME280;32907;41.412;2.164;2023-06-01T06:04:34;100453.25;;;24.68;51.89
47154;BME280;32907;41.412;2.164;2023-06-01T06:07:07;100262.91;;;23.53;51.97
47154;BME280;32907;41.412;2.164;2023-06-01T06:09:37;100436.34;;;24.57;52.03
47154;BME280;32907;41.412;2.164;2023-06-01T06:12:06;100267.41;;;23.40;52.16
47154;BME280;32907;41.412;2.164;2023-06-01T06:14:36;100448.75;;;24.63;52.07
47154;BME280;32907;41.412;2.164;2023-06-01T06:17:10;100319.78;;;23.73;52.23
47154;BME280;32907;41.412;2.164;2023-06-01T06:19:39;100457.78;;;24.64;52.33
47154;BME280;32907;41.412;2.164;2023-06-01T06:22:07;100323.03;;;23.75;52.36
47154;BME280;32907;41.412;2.164;2023-06-01T06:24:36;100207.00;;;23.02;52.43
47154;BME280;32907;41.412;2.164;2023-06-01T06:27:04;100301.44;;;23.65;52.28
47154;BME280;32907;41.412;2.164;2023-06-01T06:29:34;100288.03;;;23.55;52.27
47154;BME280;32907;41.412;2.164;2023-06-01T06:32:03;100377.00;;;24.18;52.16
47154;BME280;32907;41.412;2.164;2023-06-01T06:34:32;100326.91;;;23.83;52.39
47154;BME280;32907;41.412;2.164;2023-06-01T06:37:06;100238.41;;;23.22;52.24
47154;BME280;32907;41.412;2.164;2023-06-01T06:39:37;100400.06;;;24.25;52.25
47154;BME280;32907;41.412;2.164;2023-06-01T06:42:06;100474.69;;;24.74;52.49
47154;BME280;32907;41.412;2.164;2023-06-01T06:44:37;100202.38;;;23.02;51.80
47154;BME280;32907;41.412;2.164;2023-06-01T06:47:06;100322.22;;;23.75;52.33
47154;BME280;32907;41.412;2.164;2023-06-01T06:49:35;100262.41;;;23.33;56.00
47154;BME280;32907;41.412;2.164;2023-06-01T06:52:03;100261.44;;;23.29;55.19
47154;BME280;32907;41.412;2.164;2023-06-01T06:54:33;100354.28;;;23.91;54.61
47154;BME280;32907;41.412;2.164;2023-06-01T06:57:01;100232.00;;;23.26;53.89
47154;BME280;32907;41.412;2.164;2023-06-01T06:59:31;100242.59;;;23.19;54.08
47154;BME280;32907;41.412;2.164;2023-06-01T07:01:59;100257.59;;;23.30;53.19
47154;BME280;32907;41.412;2.164;2023-06-01T07:04:28;100388.63;;;24.15;52.54
47154;BME280;32907;41.412;2.164;2023-06-01T07:06:56;100271.75;;;23.41;52.46
47154;BME280;32907;41.412;2.164;2023-06-01T07:09:24;100365.25;;;24.09;51.95
47154;BME280;32907;41.412;2.164;2023-06-01T07:11:52;100432.63;;;24.53;52.29
47154;BME280;32907;41.412;2.164;2023-06-01T07:14:20;100430.38;;;24.46;51.98
47154;BME280;32907;41.412;2.164;2023-06-01T07:16:48;100474.22;;;24.81;51.94
47154;BME280;32907;41.412;2.164;2023-06-01T07:19:16;100441.81;;;24.57;51.96
47154;BME280;32907;41.412;2.164;2023-06-01T07:21:44;100455.03;;;24.64;51.91
47154;BME280;32907;41.412;2.164;2023-06-01T07:24:12;100469.69;;;24.76;52.18
47154;BME280;32907;41.412;2.164;2023-06-01T07:26:40;100421.03;;;24.47;52.21
47154;BME280;32907;41.412;2.164;2023-06-01T07:29:07;100484.84;;;24.82;52.15
47154;BME280;32907;41.412;2.164;2023-06-01T07:31:36;100456.19;;;24.63;52.02
47154;BME280;32907;41.412;2.164;2023-06-01T07:34:04;100471.63;;;24.67;52.99
47154;BME280;32907;41.412;2.164;2023-06-01T07:36:32;100424.53;;;24.13;53.17
47154;BME280;32907;41.412;2.164;2023-06-01T07:39:05;100484.41;;;24.63;53.73
47154;BME280;32907;41.412;2.164;2023-06-01T07:41:34;100479.38;;;24.74;53.31
47154;BME280;32907;41.412;2.164;2023-06-01T07:44:02;100470.34;;;24.73;53.29
47154;BME280;32907;41.412;2.164;2023-06-01T07:46:34;100272.09;;;23.48;52.85
47154;BME280;32907;41.412;2.164;2023-06-01T07:49:03;100305.16;;;23.78;52.58
47154;BME280;32907;41.412;2.164;2023-06-01T07:51:31;100403.75;;;24.29;52.77
47154;BME280;32907;41.412;2.164;2023-06-01T07:54:04;100365.25;;;24.00;52.83
47154;BME280;32907;41.412;2.164;2023-06-01T07:56:33;100464.53;;;24.75;52.33
47154;BME280;32907;41.412;2.164;2023-06-01T07:59:06;100234.25;;;23.33;52.57
47154;BME280;32907;41.412;2.164;2023-06-01T08:01:35;100259.84;;;23.54;52.18
47154;BME280;32907;41.412;2.164;2023-06-01T08:04:05;100263.88;;;23.48;52.41
47154;BME280;32907;41.412;2.164;2023-06-01T08:06:37;100491.44;;;24.99;52.34
47154;BME280;32907;41.412;2.164;2023-06-01T08:09:08;100304.50;;;23.81;52.69
47154;BME280;32907;41.412;2.164;2023-06-01T08:11:38;100359.28;;;24.15;52.73
47154;BME280;32907;41.412;2.164;2023-06-01T08:14:08;100497.41;;;25.01;52.81
47154;BME280;32907;41.412;2.164;2023-06-01T08:16:37;100250.03;;;23.53;52.11
47154;BME280;32907;41.412;2.164;2023-06-01T08:19:06;100328.03;;;23.99;52.52
47154;BME280;32907;41.412;2.164;2023-06-01T08:21:37;100268.75;;;23.68;52.17
47154;BME280;32907;41.412;2.164;2023-06-01T08:24:07;100270.03;;;23.62;51.65
47154;BME280;32907;41.412;2.164;2023-06-01T08:26:36;100289.69;;;23.64;52.13
47154;BME280;32907;41.412;2.164;2023-06-01T08:29:10;100296.13;;;23.60;51.78
47154;BME280;32907;41.412;2.164;2023-06-01T08:31:41;100295.31;;;23.77;51.52
47154;BME280;32907;41.412;2.164;2023-06-01T08:34:09;100309.16;;;23.80;52.13
47154;BME280;32907;41.412;2.164;2023-06-01T08:36:40;100423.44;;;24.49;51.71
47154;BME280;32907;41.412;2.164;2023-06-01T08:39:24;100433.09;;;24.72;51.85
47154;BME280;32907;41.412;2.164;2023-06-01T08:42:06;100484.19;;;25.12;51.75
47154;BME280;32907;41.412;2.164;2023-06-01T08:44:40;100259.22;;;23.66;52.31
47154;BME280;32907;41.412;2.164;2023-06-01T08:47:09;100390.56;;;24.49;52.03
47154;BME280;32907;41.412;2.164;2023-06-01T08:49:44;100284.38;;;23.85;51.66
47154;BME280;32907;41.412;2.164;2023-06-01T08:52:14;100481.75;;;25.10;50.87
47154;BME280;32907;41.412;2.164;2023-06-01T08:54:47;100411.78;;;24.69;51.07
47154;BME280;32907;41.412;2.164;2023-06-01T08:57:21;100341.53;;;24.21;50.40
47154;BME280;32907;41.412;2.164;2023-06-01T08:59:52;100322.56;;;23.99;50.65
47154;BME280;32907;41.412;2.164;2023-06-01T09:02:24;100278.09;;;23.76;50.30
47154;BME280;32907;41.412;2.164;2023-06-01T09:04:54;100453.19;;;24.94;49.84
47154;BME280;32907;41.412;2.164;2023-06-01T09:07:23;100269.88;;;23.76;49.26
47154;BME280;32907;41.412;2.164;2023-06-01T09:09:52;100303.22;;;23.87;49.32
47154;BME280;32907;41.412;2.164;2023-06-01T09:12:26;100266.97;;;23.72;49.61
47154;BME280;32907;41.412;2.164;2023-06-01T09:15:08;100495.75;;;25.26;49.72
47154;BME280;32907;41.412;2.164;2023-06-01T09:17:37;100285.66;;;23.79;49.99
47154;BME280;32907;41.412;2.164;2023-06-01T09:20:27;100306.75;;;23.79;50.35
47154;BME280;32907;41.412;2.164;2023-06-01T09:22:56;100334.13;;;24.13;50.03
47154;BME280;32907;41.412;2.164;2023-06-01T09:25:26;100425.69;;;24.64;50.00
47154;BME280;32907;41.412;2.164;2023-06-01T09:27:56;100293.88;;;23.88;50.29
47154;BME280;32907;41.412;2.164;2023-06-01T09:30:40;100262.97;;;23.61;50.02
47154;BME280;32907;41.412;2.164;2023-06-01T09:33:18;100373.13;;;24.19;50.19
47154;BME280;32907;41.412;2.164;2023-06-01T09:35:49;100339.94;;;24.03;50.33
47154;BME280;32907;41.412;2.164;2023-06-01T09:38:25;100262.16;;;23.61;49.58
47154;BME280;32907;41.412;2.164;2023-06-01T09:41:03;100411.66;;;24.66;50.11
47154;BME280;32907;41.412;2.164;2023-06-01T09:43:34;100410.66;;;24.62;50.21
47154;BME280;32907;41.412;2.164;2023-06-01T09:46:10;100337.38;;;24.07;49.87
47154;BME280;32907;41.412;2.164;2023-06-01T09:48:42;100496.56;;;25.26;50.68
47154;BME280;32907;41.412;2.164;2023-06-01T09:51:23;100498.66;;;25.29;50.16
47154;BME280;32907;41.412;2.164;2023-06-01T09:53:54;100305.94;;;24.04;50.56
47154;BME280;32907;41.412;2.164;2023-06-01T09:56:23;100337.97;;;24.29;50.62
47154;BME280;32907;41.412;2.164;2023-06-01T09:59:01;100435.13;;;24.93;50.48
47154;BME280;32907;41.412;2.164;2023-06-01T10:01:31;100416.75;;;24.93;50.87
47154;BME280;32907;41.412;2.164;2023-06-01T10:04:03;100277.41;;;24.05;50.36
47154;BME280;32907;41.412;2.164;2023-06-01T10:06:36;100268.38;;;24.13;50.67
47154;BME280;32907;41.412;2.164;2023-06-01T10:09:34;100491.75;;;25.61;49.51
47154;BME280;32907;41.412;2.164;2023-06-01T10:12:08;100406.06;;;25.09;49.36
47154;BME280;32907;41.412;2.164;2023-06-01T10:14:43;100253.75;;;24.00;49.02
47154;BME280;32907;41.412;2.164;2023-06-01T10:17:13;100414.25;;;25.18;49.71
47154;BME280;32907;41.412;2.164;2023-06-01T10:19:46;100419.44;;;25.19;50.47
47154;BME280;32907;41.412;2.164;2023-06-01T10:22:14;100294.97;;;24.39;50.78
47154;BME280;32907;41.412;2.164;2023-06-01T10:24:46;100276.41;;;24.27;50.14
47154;BME280;32907;41.412;2.164;2023-06-01T10:27:29;100288.34;;;24.40;49.56
47154;BME280;32907;41.412;2.164;2023-06-01T10:30:07;100365.16;;;24.87;50.33
47154;BME280;32907;41.412;2.164;2023-06-01T10:32:48;100480.78;;;25.61;50.53
47154;BME280;32907;41.412;2.164;2023-06-01T10:40:47;100417.69;;;25.15;48.09
47154;BME280;32907;41.412;2.164;2023-06-01T10:46:34;100480.44;;;25.72;47.86
47154;BME280;32907;41.412;2.164;2023-06-01T10:49:06;100423.56;;;25.34;47.57
47154;BME280;32907;41.412;2.164;2023-06-01T10:51:35;100292.19;;;24.56;47.43
47154;BME280;32907;41.412;2.164;2023-06-01T10:54:34;100408.47;;;25.19;47.26
47154;BME280;32907;41.412;2.164;2023-06-01T10:57:25;100392.13;;;25.23;46.83
47154;BME280;32907;41.412;2.164;2023-06-01T11:00:10;100468.81;;;25.75;48.17
47154;BME280;32907;41.412;2.164;2023-06-01T11:02:44;100335.88;;;24.99;47.83
47154;BME280;32907;41.412;2.164;2023-06-01T11:05:37;100458.06;;;25.82;46.47
47154;BME280;32907;41.412;2.164;2023-06-01T11:08:07;100424.00;;;25.45;46.23
47154;BME280;32907;41.412;2.164;2023-06-01T11:17:28;100369.00;;;25.32;45.71
47154;BME280;32907;41.412;2.164;2023-06-01T11:20:02;100255.28;;;24.45;46.12
47154;BME280;32907;41.412;2.164;2023-06-01T11:22:36;100229.31;;;24.51;46.71
47154;BME280;32907;41.412;2.164;2023-06-01T11:25:06;100246.22;;;24.53;45.67
47154;BME280;32907;41.412;2.164;2023-06-01T11:30:38;100221.63;;;24.36;45.32
47154;BME280;32907;41.412;2.164;2023-06-01T11:33:06;100215.97;;;24.41;44.84
47154;BME280;32907;41.412;2.164;2023-06-01T11:35:57;100376.38;;;25.41;44.92
47154;BME280;32907;41.412;2.164;2023-06-01T11:38:54;100269.38;;;24.73;44.46
47154;BME280;32907;41.412;2.164;2023-06-01T11:41:43;100213.56;;;24.31;44.17
47154;BME280;32907;41.412;2.164;2023-06-01T11:44:12;100275.19;;;24.71;44.36
47154;BME280;32907;41.412;2.164;2023-06-01T11:46:56;100310.84;;;25.01;44.04
47154;BME280;32907;41.412;2.164;2023-06-01T11:52:44;100451.94;;;25.85;44.74
47154;BME280;32907;41.412;2.164;2023-06-01T11:55:14;100253.59;;;24.61;45.02
47154;BME280;32907;41.412;2.164;2023-06-01T11:57:43;100219.31;;;24.55;45.33
47154;BME280;32907;41.412;2.164;2023-06-01T12:00:16;100216.72;;;24.50;45.56
47154;BME280;32907;41.412;2.164;2023-06-01T12:02:44;100219.94;;;24.52;45.70
47154;BME280;32907;41.412;2.164;2023-06-01T12:05:12;100353.78;;;25.44;46.46
47154;BME280;32907;41.412;2.164;2023-06-01T12:07:49;100298.13;;;25.05;45.31
47154;BME280;32907;41.412;2.164;2023-06-01T12:10:23;100223.47;;;24.52;47.63
47154;BME280;32907;41.412;2.164;2023-06-01T12:12:52;100377.75;;;25.55;46.30
47154;BME280;32907;41.412;2.164;2023-06-01T12:15:20;100440.09;;;25.93;45.95
47154;BME280;32907;41.412;2.164;2023-06-01T12:17:52;100303.47;;;24.93;45.73
47154;BME280;32907;41.412;2.164;2023-06-01T12:20:37;100256.72;;;24.51;45.94
47154;BME280;32907;41.412;2.164;2023-06-01T12:23:16;100377.34;;;25.45;45.03
47154;BME280;32907;41.412;2.164;2023-06-01T12:25:55;100361.72;;;25.36;45.89
47154;BME280;32907;41.412;2.164;2023-06-01T12:28:27;100312.19;;;24.95;45.70
47154;BME280;32907;41.412;2.164;2023-06-01T12:31:10;100340.88;;;25.06;45.96
47154;BME280;32907;41.412;2.164;2023-06-01T12:33:42;100393.66;;;25.41;46.30
47154;BME280;32907;41.412;2.164;2023-06-01T12:36:33;100316.53;;;24.96;45.05
47154;BME280;32907;41.412;2.164;2023-06-01T12:39:03;100368.34;;;25.35;45.04
47154;BME280;32907;41.412;2.164;2023-06-01T12:41:33;100306.03;;;24.98;45.05
47154;BME280;32907;41.412;2.164;2023-06-01T12:44:01;100228.38;;;24.47;45.08
47154;BME280;32907;41.412;2.164;2023-06-01T12:46:30;100210.66;;;24.36;45.32
47154;BME280;32907;41.412;2.164;2023-06-01T12:49:16;100331.63;;;25.19;45.47
47154;BME280;32907;41.412;2.164;2023-06-01T12:51:50;100223.53;;;24.44;45.36
47154;BME280;32907;41.412;2.164;2023-06-01T12:54:21;100438.53;;;25.83;45.17
47154;BME280;32907;41.412;2.164;2023-06-01T12:56:50;100194.06;;;24.32;45.05
47154;BME280;32907;41.412;2.164;2023-06-01T12:59:20;100213.94;;;24.59;44.88
47154;BME280;32907;41.412;2.164;2023-06-01T13:01:49;100208.16;;;24.51;44.83
47154;BME280;32907;41.412;2.164;2023-06-01T13:04:17;100246.69;;;24.64;45.04
47154;BME280;32907;41.412;2.164;2023-06-01T13:06:45;100337.03;;;25.36;44.94
47154;BME280;32907;41.412;2.164;2023-06-01T13:09:14;100297.34;;;25.04;44.52
47154;BME280;32907;41.412;2.164;2023-06-01T13:11:42;100226.09;;;24.49;44.46
47154;BME280;32907;41.412;2.164;2023-06-01T13:14:10;100343.03;;;25.30;45.20
47154;BME280;32907;41.412;2.164;2023-06-01T13:16:39;100419.09;;;25.88;44.98
47154;BME280;32907;41.412;2.164;2023-06-01T13:19:07;100413.00;;;25.83;45.26
47154;BME280;32907;41.412;2.164;2023-06-01T13:21:36;100395.91;;;25.77;45.30
47154;BME280;32907;41.412;2.164;2023-06-01T13:24:05;100303.41;;;25.19;45.30
47154;BME280;32907;41.412;2.164;2023-06-01T13:26:33;100436.19;;;25.94;45.58
47154;BME280;32907;41.412;2.164;2023-06-01T13:29:01;100382.56;;;25.67;45.33
47154;BME280;32907;41.412;2.164;2023-06-01T13:31:29;100395.69;;;25.82;45.48
47154;BME280;32907;41.412;2.164;2023-06-01T13:33:58;100397.66;;;25.82;45.45
47154;BME280;32907;41.412;2.164;2023-06-01T13:36:26;100429.16;;;26.05;45.52
47154;BME280;32907;41.412;2.164;2023-06-01T13:38:54;100395.22;;;25.80;45.87
47154;BME280;32907;41.412;2.164;2023-06-01T13:41:22;100370.38;;;25.77;45.86
47154;BME280;32907;41.412;2.164;2023-06-01T13:43:51;100406.38;;;26.05;46.11
47154;BME280;32907;41.412;2.164;2023-06-01T13:46:19;100346.84;;;25.67;45.86
47154;BME280;32907;41.412;2.164;2023-06-01T13:48:46;100364.44;;;25.75;46.36
47154;BME280;32907;41.412;2.164;2023-06-01T13:51:14;100411.22;;;26.08;46.01
47154;BME280;32907;41.412;2.164;2023-06-01T13:53:42;100408.94;;;26.10;46.12
47154;BME280;32907;41.412;2.164;2023-06-01T13:56:10;100397.59;;;26.11;46.27
47154;BME280;32907;41.412;2.164;2023-06-01T13:58:39;100367.44;;;25.82;46.11